createdAt,value
2023-04-01T00:01:53.021Z,98420.00
2023-04-01T00:13:55.646Z,98409.80
2023-04-01T00:26:04.637Z,98417.20
2023-04-01T00:37:59.489Z,98413.40
2023-04-01T00:58:10.367Z,98411.60
2023-04-01T01:03:14.482Z,98411.40
2023-04-01T01:23:09.858Z,98408.20
2023-04-01T01:28:27.337Z,98408.60
2023-04-01T01:33:54.982Z,98403.80
2023-04-01T01:39:00.598Z,98408.80
2023-04-01T01:52:41.040Z,98409.20
2023-04-01T02:05:26.287Z,98401.20
2023-04-01T02:10:38.160Z,98403.20
2023-04-01T02:37:06.162Z,98403.40
2023-04-01T02:42:11.855Z,98399.80
2023-04-01T02:51:41.548Z,98409.00
2023-04-01T03:03:48.787Z,98412.40
2023-04-01T03:08:52.601Z,98413.80
2023-04-01T03:21:43.589Z,98425.80
2023-04-01T03:26:47.250Z,98420.00
2023-04-01T03:31:51.284Z,98420.60
2023-04-01T03:59:55.489Z,98424.80
2023-04-01T04:04:59.331Z,98428.00
2023-04-01T04:10:03.781Z,98431.00
2023-04-01T04:40:25.809Z,98453.00
2023-04-01T04:46:12.088Z,98453.00
2023-04-01T05:01:49.071Z,98466.60
2023-04-01T05:06:53.224Z,98467.20
2023-04-01T05:12:18.943Z,98474.40
2023-04-01T05:25:10.414Z,98482.20
2023-04-01T05:30:25.288Z,98490.20
2023-04-01T05:35:33.044Z,98491.20
2023-04-01T05:40:39.796Z,98490.40
2023-04-01T05:46:09.142Z,98495.20
2023-04-01T05:51:23.268Z,98498.40
2023-04-01T05:56:32.536Z,98502.20
2023-04-01T06:02:29.442Z,98509.00
2023-04-01T06:08:11.597Z,98512.20
2023-04-01T06:14:09.716Z,98516.80
2023-04-01T06:20:16.556Z,98522.20
2023-04-01T06:25:33.547Z,98523.80
2023-04-01T06:31:42.860Z,98521.00
2023-04-01T06:37:07.677Z,98525.00
2023-04-01T06:42:42.246Z,98534.80
2023-04-01T06:48:07.644Z,98535.00
2023-04-01T06:53:37.584Z,98540.20
2023-04-01T06:59:14.716Z,98545.20
2023-04-01T07:04:25.245Z,98551.00
2023-04-01T07:09:49.885Z,98562.80
2023-04-01T07:14:57.554Z,98568.00
2023-04-01T07:20:18.862Z,98574.60
2023-04-01T07:25:27.582Z,98577.40
2023-04-01T07:30:54.199Z,98577.00
2023-04-01T07:36:15.604Z,98580.60
2023-04-01T07:41:36.028Z,98585.40
2023-04-01T07:47:21.553Z,98590.00
2023-04-01T07:52:35.972Z,98598.20
2023-04-01T07:58:40.432Z,98602.20
2023-04-01T08:18:23.992Z,98612.40
2023-04-01T08:23:57.710Z,98616.80
2023-04-01T08:37:30.814Z,98615.00
2023-04-01T08:53:38.167Z,98628.40
2023-04-01T08:59:12.967Z,98624.60
2023-04-01T09:04:55.066Z,98627.40
2023-04-01T09:10:26.229Z,98635.00
2023-04-01T09:30:47.675Z,98659.80
2023-04-01T09:37:12.157Z,98676.20
2023-04-01T09:43:37.413Z,98680.60
2023-04-01T09:49:35.007Z,98687.60
2023-04-01T09:55:01.463Z,98688.80
2023-04-01T10:01:02.778Z,98694.20
2023-04-01T10:06:29.527Z,98707.60
2023-04-01T10:12:16.019Z,98710.40
2023-04-01T10:18:06.837Z,98708.40
2023-04-01T10:24:11.732Z,98717.80
2023-04-01T10:29:47.085Z,98729.80
2023-04-01T10:43:06.311Z,98729.40
2023-04-01T10:49:10.986Z,98740.20
2023-04-01T10:55:00.879Z,98738.00
2023-04-01T11:00:46.004Z,98748.00
2023-04-01T11:06:30.348Z,98752.00
2023-04-01T11:12:00.706Z,98752.00
2023-04-01T11:17:32.518Z,98760.40
2023-04-01T11:23:23.324Z,98764.80
2023-04-01T11:28:35.325Z,98769.60
2023-04-01T11:34:19.600Z,98774.60
2023-04-01T11:39:52.119Z,98772.40
2023-04-01T11:45:19.426Z,98778.60
2023-04-01T11:51:04.678Z,98783.00
2023-04-01T11:56:52.753Z,98793.00
2023-04-01T12:02:26.210Z,98803.20
2023-04-01T12:08:06.184Z,98810.80
2023-04-01T12:14:01.280Z,98817.00
2023-04-01T12:19:25.228Z,98817.80
2023-04-01T12:25:16.327Z,98821.80
2023-04-01T12:30:46.231Z,98827.00
2023-04-01T12:36:42.125Z,98835.40
2023-04-01T12:42:22.156Z,98844.80
2023-04-01T12:48:15.345Z,98842.60
2023-04-01T12:54:14.223Z,98849.60
2023-04-01T12:59:59.762Z,98851.80
2023-04-01T13:05:26.611Z,98863.80
2023-04-01T13:11:04.805Z,98869.00
2023-04-01T13:16:40.751Z,98880.40
2023-04-01T13:22:11.887Z,98886.80
2023-04-01T13:27:42.036Z,98891.80
2023-04-01T13:33:28.720Z,98901.80
2023-04-01T13:38:55.100Z,98904.40
2023-04-01T13:44:11.343Z,98910.40
2023-04-01T13:49:58.485Z,98911.40
2023-04-01T13:55:24.163Z,98911.60
2023-04-01T14:01:09.297Z,98925.00
2023-04-01T14:06:47.575Z,98929.00
2023-04-01T14:12:30.183Z,98935.60
2023-04-01T14:17:58.206Z,98941.20
2023-04-01T14:23:36.926Z,98946.40
2023-04-01T14:29:11.628Z,98951.40
2023-04-01T14:35:07.939Z,98951.80
2023-04-01T14:41:07.571Z,98961.40
2023-04-01T14:47:04.564Z,98966.60
2023-04-01T14:52:33.272Z,98974.80
2023-04-01T14:57:36.884Z,98978.40
2023-04-01T15:03:40.268Z,98987.00
2023-04-01T15:17:46.799Z,99012.00
2023-04-01T15:23:48.187Z,99015.00
2023-04-01T15:29:39.372Z,99022.80
2023-04-01T15:35:40.158Z,99034.40
2023-04-01T15:41:07.721Z,99041.80
2023-04-01T15:46:42.612Z,99048.80
2023-04-01T15:52:30.229Z,99056.00
2023-04-01T15:58:22.189Z,99061.20
2023-04-01T16:03:48.053Z,99073.20
2023-04-01T16:09:15.924Z,99080.20
2023-04-01T16:14:48.593Z,99092.40
2023-04-01T16:20:41.141Z,99103.60
2023-04-01T16:26:14.502Z,99111.40
2023-04-01T16:31:26.652Z,99115.20
2023-04-01T16:43:49.965Z,99137.40
2023-04-01T16:49:43.591Z,99146.80
2023-04-01T16:55:10.313Z,99157.00
2023-04-01T17:00:39.644Z,99152.80
2023-04-01T17:05:56.986Z,99166.20
2023-04-01T17:11:24.063Z,99176.60
2023-04-01T17:16:49.376Z,99186.20
2023-04-01T17:23:18.586Z,99190.40
2023-04-01T17:28:54.890Z,99205.00
2023-04-01T17:34:04.720Z,99209.60
2023-04-01T17:39:32.086Z,99212.20
2023-04-01T17:45:21.888Z,99227.00
2023-04-01T17:50:48.984Z,99236.40
2023-04-01T17:56:16.141Z,99248.00
2023-04-01T18:01:41.672Z,99250.80
2023-04-01T18:07:11.851Z,99257.60
2023-04-01T18:13:04.245Z,99266.20
2023-04-01T18:18:33.496Z,99270.40
2023-04-01T18:33:56.325Z,99297.80
2023-04-01T18:49:22.530Z,99317.00
2023-04-01T18:55:29.978Z,99319.80
2023-04-01T19:00:54.690Z,99328.60
2023-04-01T19:06:10.258Z,99333.60
2023-04-01T19:11:33.052Z,99339.80
2023-04-01T19:17:09.416Z,99347.40
2023-04-01T19:22:56.258Z,99356.00
2023-04-01T19:28:42.194Z,99368.40
2023-04-01T19:48:39.829Z,99384.80
2023-04-01T19:54:04.853Z,99387.80
2023-04-01T19:59:31.734Z,99395.40
2023-04-01T20:04:43.838Z,99403.00
2023-04-01T20:10:05.003Z,99408.40
2023-04-01T20:15:35.557Z,99415.20
2023-04-01T20:20:41.429Z,99421.40
2023-04-01T20:25:54.270Z,99422.80
2023-04-01T20:31:15.105Z,99428.00
2023-04-01T20:36:57.045Z,99430.60
2023-04-01T20:42:50.124Z,99439.40
2023-04-01T20:48:37.774Z,99445.40
2023-04-01T20:54:06.976Z,99446.60
2023-04-01T20:59:29.501Z,99458.20
2023-04-01T21:05:43.100Z,99463.60
2023-04-01T21:10:58.439Z,99467.00
2023-04-01T21:16:56.705Z,99472.60
2023-04-01T21:22:31.417Z,99481.20
2023-04-01T21:27:37.851Z,99486.40
2023-04-01T21:33:16.810Z,99493.40
2023-04-01T21:39:06.486Z,99494.80
2023-04-01T21:44:42.657Z,99499.40
2023-04-01T21:50:31.009Z,99500.60
2023-04-01T22:31:05.165Z,99533.60
2023-04-01T22:40:40.087Z,99548.60
2023-04-01T22:46:24.918Z,99552.60
2023-04-01T23:06:49.735Z,99569.80
2023-04-01T23:12:22.196Z,99568.40
2023-04-01T23:18:09.721Z,99579.40
2023-04-01T23:23:33.525Z,99584.60
2023-04-01T23:50:27.083Z,99619.00
2023-04-01T23:55:36.123Z,99621.60
